Navig8 Honor — V7SZ5 — position and weather

sailwx.info

Track history (hours):
 
Tides and Currents Weather Stations Pressure Air Temp Water Temp Dewpoint Dewpoint Depression Visibility Wind Speed Wind Dir Waves Ship Positions

Navig8 Honor

Last reported at 2018-Feb-14 14:10 UTC. Time now 2018-Feb-20 03:58 UTC.
Position N 27°34' W 015°14'.

Length 228 m; draft 13.3 m.

Type: Ship. MMSI: 538003756.

Date/timePositionNaut miles runAvg speedWind from/ knotsBaromVisibWave heightAir tempDewpointWater temp
2018-Feb-14 14:10N 27°34' W 015°14'213.1
2018-Feb-14 14:00N 27°36' W 015°13'612.7
2018-Feb-14 13:30N 27°42' W 015°11'612.6
2018-Feb-14 13:00N 27°48' W 015°09'612.5
2018-Feb-14 12:30N 27°54' W 015°07'612.7
2018-Feb-14 12:00N 28°00' W 015°05'612.7
2018-Feb-14 11:30N 28°06' W 015°01'613.2
2018-Feb-14 11:00N 28°12' W 014°59'612.9
2018-Feb-14 10:31N 28°18' W 014°56'713.3
2018-Feb-14 10:01N 28°24' W 014°54'713.2
2018-Feb-14 09:30N 28°31' W 014°52'713.1
2018-Feb-14 09:00N 28°37' W 014°50'713.0
2018-Feb-14 08:29N 28°44' W 014°48'712.8
2018-Feb-14 07:58N 28°50' W 014°46'612.8
2018-Feb-14 07:28N 28°56' W 014°45'712.9
2018-Feb-14 06:57N 29°03' W 014°43'  
2018-Feb-09 18:01N 49°50' W 003°27'612.3
2018-Feb-09 17:31N 49°53' W 003°19'611.9
2018-Feb-09 17:01N 49°55' W 003°10'611.8
2018-Feb-09 16:31N 49°58' W 003°02'1711.1
2018-Feb-09 15:00N 50°04' W 002°38'4310.8
2018-Feb-09 11:01N 50°14' W 001°32'5012.6
2018-Feb-09 07:00N 50°27' W 000°16'1611.0
2018-Feb-09 05:30N 50°31' E 000°09'510.6
2018-Feb-09 05:00N 50°33' E 000°17'510.3
2018-Feb-09 04:30N 50°34' E 000°25'510.2
2018-Feb-09 04:00N 50°35' E 000°33'510.1
2018-Feb-09 03:30N 50°38' E 000°39'510.1
2018-Feb-09 03:00N 50°41' E 000°46'510.3
2018-Feb-09 02:30N 50°43' E 000°53'510.7
2018-Feb-09 02:00N 50°46' E 001°00'2411.8
2018-Feb-09 00:00N 51°02' E 001°28'1211.8
2018-Feb-08 23:00N 51°10' E 001°41'611.6
2018-Feb-08 22:30N 51°15' E 001°47'611.2
2018-Feb-08 22:00N 51°20' E 001°52'511.0
2018-Feb-08 21:30N 51°25' E 001°55'510.8
2018-Feb-08 21:00N 51°29' E 002°01'510.7
2018-Feb-08 20:30N 51°33' E 002°07'510.8
2018-Feb-08 20:00N 51°37' E 002°13'510.8
2018-Feb-08 19:30N 51°41' E 002°18'1110.8
2018-Feb-08 18:30N 51°49' E 002°29'8710.9
2018-Feb-08 10:30N 52°28' E 004°37'0 0.2
2018-Feb-08 10:00N 52°28' E 004°37'6 0.7
2018-Feb-08 01:29N 52°25' E 004°45'0 0.0
2018-Feb-08 00:56N 52°25' E 004°45'0 0.0
2018-Feb-08 00:29N 52°25' E 004°45'0 0.0
2018-Feb-07 23:56N 52°25' E 004°45'0 0.0
2018-Feb-07 23:29N 52°25' E 004°45'0 0.0
2018-Feb-07 22:59N 52°25' E 004°45'0 0.0
2018-Feb-07 22:29N 52°25' E 004°45'0 0.0
2018-Feb-07 21:56N 52°25' E 004°45'0 0.0
2018-Feb-07 21:29N 52°25' E 004°45'0 0.0
2018-Feb-07 09:29N 52°25' E 004°45'0 0.0
2018-Feb-07 08:59N 52°25' E 004°45'0 0.0
2018-Feb-07 08:29N 52°25' E 004°45'0 0.0
2018-Feb-07 07:59N 52°25' E 004°45'0 0.0
2018-Feb-07 07:26N 52°25' E 004°45'0 0.0
2018-Feb-07 06:59N 52°25' E 004°45'0 0.0
2018-Feb-07 06:26N 52°25' E 004°45'0 0.0
2018-Feb-07 05:56N 52°25' E 004°45'0 0.0
2018-Feb-07 05:29N 52°25' E 004°45'0 0.0
2018-Feb-07 04:59N 52°25' E 004°45'0 0.0
2018-Feb-07 04:29N 52°25' E 004°45'0 0.0
2018-Feb-07 03:59N 52°25' E 004°45'0 0.0
2018-Feb-07 03:20N 52°25' E 004°45'0 0.0
2018-Feb-07 02:59N 52°25' E 004°45'0 0.0
2018-Feb-07 02:26N 52°25' E 004°45'0 0.0
2018-Feb-07 01:59N 52°25' E 004°45'0 0.0
2018-Feb-07 01:23N 52°25' E 004°45'0 0.0
2018-Feb-07 00:59N 52°25' E 004°45'0 0.0
2018-Feb-07 00:29N 52°25' E 004°45'0 0.0
2018-Feb-06 23:59N 52°25' E 004°45'0 0.0
2018-Feb-06 23:29N 52°25' E 004°45'0 0.0
2018-Feb-06 22:56N 52°25' E 004°45'0 0.0
2018-Feb-06 22:29N 52°25' E 004°45'0 0.0
2018-Feb-06 21:56N 52°25' E 004°45'0 0.0
2018-Feb-06 21:29N 52°25' E 004°45'0 0.0
2018-Feb-06 20:59N 52°25' E 004°45'0 0.0
2018-Feb-06 20:29N 52°25' E 004°45'0 0.0
2018-Feb-06 19:59N 52°25' E 004°45'0 0.0
2018-Feb-06 19:29N 52°25' E 004°45'0 0.0
2018-Feb-06 18:50N 52°25' E 004°45'0 0.0
2018-Feb-06 18:23N 52°25' E 004°45'0 0.0
2018-Feb-06 17:59N 52°25' E 004°45'0 0.0
2018-Feb-06 17:29N 52°25' E 004°45'0 0.0
2018-Feb-06 16:59N 52°25' E 004°45'0 0.0
2018-Feb-06 16:29N 52°25' E 004°45'0 0.0
2018-Feb-06 15:53N 52°25' E 004°45'0 0.0
2018-Feb-06 15:29N 52°25' E 004°45'0 0.0
2018-Feb-06 14:59N 52°25' E 004°45'0 0.0
2018-Feb-06 14:26N 52°25' E 004°45'0 0.0
2018-Feb-06 13:50N 52°25' E 004°45'0 0.0
2018-Feb-06 13:29N 52°25' E 004°45'0 0.0
2018-Feb-06 12:59N 52°25' E 004°45'0 0.0
2018-Feb-06 12:29N 52°25' E 004°45'0 0.0
2018-Feb-06 11:59N 52°25' E 004°45'0 0.0
2018-Feb-06 11:26N 52°25' E 004°45'0 0.0
2018-Feb-06 10:59N 52°25' E 004°45'0 0.0
2018-Feb-06 10:29N 52°25' E 004°45'0 0.0
2018-Feb-06 09:59N 52°25' E 004°45'0 0.0
2018-Feb-06 09:29N 52°25' E 004°45'0 0.0
2018-Feb-06 08:53N 52°25' E 004°45'0 0.0
2018-Feb-06 08:29N 52°25' E 004°45'0 0.0
2018-Feb-06 07:59N 52°25' E 004°45'0 0.0
2018-Feb-06 07:29N 52°25' E 004°45'0 0.0
2018-Feb-06 06:59N 52°25' E 004°45'0 0.0
2018-Feb-06 06:29N 52°25' E 004°45'0 0.0
2018-Feb-06 05:56N 52°25' E 004°45'0 0.0
2018-Feb-06 05:29N 52°25' E 004°45'0 0.0
2018-Feb-06 04:56N 52°25' E 004°45'0 0.0
2018-Feb-06 04:29N 52°25' E 004°45'0 0.0
2018-Feb-06 03:59N 52°25' E 004°45'0 0.0
2018-Feb-06 03:26N 52°25' E 004°45'0 0.0
2018-Feb-06 02:59N 52°25' E 004°45'0 0.0
2018-Feb-06 02:29N 52°25' E 004°45'0 0.0
2018-Feb-06 01:59N 52°25' E 004°45'0 0.0
2018-Feb-06 01:23N 52°25' E 004°45'0 0.0
2018-Feb-06 00:50N 52°25' E 004°45'0 0.0
2018-Feb-06 00:29N 52°25' E 004°45'0 0.0
2018-Feb-05 23:59N 52°25' E 004°45'0 0.0
2018-Feb-05 23:29N 52°25' E 004°45'0 0.0
2018-Feb-05 22:56N 52°25' E 004°45'0 0.0
2018-Feb-05 22:29N 52°25' E 004°45'0 0.0
2018-Feb-05 21:50N 52°25' E 004°45'0 0.0
2018-Feb-05 21:23N 52°25' E 004°45'0 0.0
2018-Feb-05 20:59N 52°25' E 004°45'0 0.0
2018-Feb-05 20:29N 52°25' E 004°45'0 0.0
2018-Feb-05 19:59N 52°25' E 004°45'0 0.0
2018-Feb-05 19:26N 52°25' E 004°45'0 0.0
2018-Feb-05 18:56N 52°25' E 004°45'0 0.0
2018-Feb-05 18:29N 52°25' E 004°45'0 0.0
2018-Feb-05 17:59N 52°25' E 004°45'0 0.0
2018-Feb-05 17:29N 52°25' E 004°45'0 0.0
2018-Feb-05 16:59N 52°25' E 004°45'0 0.0
2018-Feb-05 16:29N 52°25' E 004°45'0 0.0
2018-Feb-05 15:56N 52°25' E 004°45'0 0.0
2018-Feb-05 15:29N 52°25' E 004°45'0 0.0
2018-Feb-05 14:59N 52°25' E 004°45'0 0.0
2018-Feb-05 14:29N 52°25' E 004°45'0 0.0
2018-Feb-05 13:59N 52°25' E 004°45'0 0.0
2018-Feb-05 13:29N 52°25' E 004°45'0 0.0
2018-Feb-05 12:59N 52°25' E 004°45'0 0.0
2018-Feb-05 12:23N 52°25' E 004°45'0 0.0
2018-Feb-05 11:59N 52°25' E 004°45'0 0.0
2018-Feb-05 11:23N 52°25' E 004°45'0 0.0
2018-Feb-05 10:59N 52°25' E 004°45'0 0.0
2018-Feb-05 10:29N 52°25' E 004°45'0 0.0
2018-Feb-05 09:59N 52°25' E 004°45'0 0.0
2018-Feb-05 09:29N 52°25' E 004°45'0 0.0
2018-Feb-05 08:56N 52°25' E 004°45'0 0.0
2018-Feb-05 08:29N 52°25' E 004°45'0 0.0
2018-Feb-05 07:59N 52°25' E 004°45'0 0.0
2018-Feb-05 07:29N 52°25' E 004°45'0 0.0
2018-Feb-05 06:59N 52°25' E 004°45'0 0.0
2018-Feb-05 06:29N 52°25' E 004°45'0 0.0
2018-Feb-05 05:29N 52°25' E 004°45'0 0.0
2018-Feb-05 04:59N 52°25' E 004°45'0 0.0
2018-Feb-05 04:29N 52°25' E 004°45'0 0.0
2018-Feb-05 03:59N 52°25' E 004°45'0 0.0
2018-Feb-05 03:29N 52°25' E 004°45'0 0.0
2018-Feb-05 02:59N 52°25' E 004°45'0 0.0
2018-Feb-05 02:26N 52°25' E 004°45'0 0.0
2018-Feb-05 01:59N 52°25' E 004°45'0 0.0
2018-Feb-05 01:29N 52°25' E 004°45'0 0.0
2018-Feb-05 00:59N 52°25' E 004°45'0 0.0
2018-Feb-05 00:23N 52°25' E 004°45'0 0.0
2018-Feb-04 23:59N 52°25' E 004°45'0 0.0
2018-Feb-04 23:29N 52°25' E 004°45'0 0.0
2018-Feb-04 22:59N 52°25' E 004°45'0 0.0
2018-Feb-04 22:29N 52°25' E 004°45'0 0.0
2018-Feb-04 21:59N 52°25' E 004°45'0 0.0
2018-Feb-04 21:29N 52°25' E 004°45'0 0.0
2018-Feb-04 20:59N 52°25' E 004°45'0 0.0
2018-Feb-04 19:59N 52°25' E 004°45'0 0.0
2018-Feb-04 19:26N 52°25' E 004°45'0 0.0
2018-Feb-04 18:59N 52°25' E 004°45'0 0.0
2018-Feb-04 18:29N 52°25' E 004°45'0 0.0
2018-Feb-04 17:56N 52°25' E 004°45'0 0.0
2018-Feb-04 17:29N 52°25' E 004°45'0 0.0
2018-Feb-04 15:29N 52°25' E 004°45'0 0.0
2018-Feb-04 14:59N 52°25' E 004°45'0 0.0
2018-Feb-04 14:29N 52°25' E 004°45'  
Track history (hours):
 
Tides and Currents Weather Stations Pressure Air Temp Water Temp Dewpoint Dewpoint Depression Visibility Wind Speed Wind Dir Waves Ship Positions

Navig8 Honor

Last reported at 2018-Feb-14 14:10 UTC. Time now 2018-Feb-20 03:58 UTC.
Position N 27°34' W 015°14'.

Length 228 m; draft 13.3 m.

Type: Ship. MMSI: 538003756.

Date/timePositionNaut miles runAvg speedWind from/ knotsBaromVisibWave heightAir tempDewpointWater temp
2018-Feb-14 14:10N 27°34' W 015°14'213.1
2018-Feb-14 14:00N 27°36' W 015°13'612.7
2018-Feb-14 13:30N 27°42' W 015°11'612.6
2018-Feb-14 13:00N 27°48' W 015°09'612.5
2018-Feb-14 12:30N 27°54' W 015°07'612.7
2018-Feb-14 12:00N 28°00' W 015°05'612.7
2018-Feb-14 11:30N 28°06' W 015°01'613.2
2018-Feb-14 11:00N 28°12' W 014°59'612.9
2018-Feb-14 10:31N 28°18' W 014°56'713.3
2018-Feb-14 10:01N 28°24' W 014°54'713.2
2018-Feb-14 09:30N 28°31' W 014°52'713.1
2018-Feb-14 09:00N 28°37' W 014°50'713.0
2018-Feb-14 08:29N 28°44' W 014°48'712.8
2018-Feb-14 07:58N 28°50' W 014°46'612.8
2018-Feb-14 07:28N 28°56' W 014°45'712.9
2018-Feb-14 06:57N 29°03' W 014°43'  
2018-Feb-09 18:01N 49°50' W 003°27'612.3
2018-Feb-09 17:31N 49°53' W 003°19'611.9
2018-Feb-09 17:01N 49°55' W 003°10'611.8
2018-Feb-09 16:31N 49°58' W 003°02'1711.1
2018-Feb-09 15:00N 50°04' W 002°38'4310.8
2018-Feb-09 11:01N 50°14' W 001°32'5012.6
2018-Feb-09 07:00N 50°27' W 000°16'1611.0
2018-Feb-09 05:30N 50°31' E 000°09'510.6
2018-Feb-09 05:00N 50°33' E 000°17'510.3
2018-Feb-09 04:30N 50°34' E 000°25'510.2
2018-Feb-09 04:00N 50°35' E 000°33'510.1
2018-Feb-09 03:30N 50°38' E 000°39'510.1
2018-Feb-09 03:00N 50°41' E 000°46'510.3
2018-Feb-09 02:30N 50°43' E 000°53'510.7
2018-Feb-09 02:00N 50°46' E 001°00'2411.8
2018-Feb-09 00:00N 51°02' E 001°28'1211.8
2018-Feb-08 23:00N 51°10' E 001°41'611.6
2018-Feb-08 22:30N 51°15' E 001°47'611.2
2018-Feb-08 22:00N 51°20' E 001°52'511.0
2018-Feb-08 21:30N 51°25' E 001°55'510.8
2018-Feb-08 21:00N 51°29' E 002°01'510.7
2018-Feb-08 20:30N 51°33' E 002°07'510.8
2018-Feb-08 20:00N 51°37' E 002°13'510.8
2018-Feb-08 19:30N 51°41' E 002°18'1110.8
2018-Feb-08 18:30N 51°49' E 002°29'8710.9
2018-Feb-08 10:30N 52°28' E 004°37'0 0.2
2018-Feb-08 10:00N 52°28' E 004°37'6 0.7
2018-Feb-08 01:29N 52°25' E 004°45'0 0.0
2018-Feb-08 00:56N 52°25' E 004°45'0 0.0
2018-Feb-08 00:29N 52°25' E 004°45'0 0.0
2018-Feb-07 23:56N 52°25' E 004°45'0 0.0
2018-Feb-07 23:29N 52°25' E 004°45'0 0.0
2018-Feb-07 22:59N 52°25' E 004°45'0 0.0
2018-Feb-07 22:29N 52°25' E 004°45'0 0.0
2018-Feb-07 21:56N 52°25' E 004°45'0 0.0
2018-Feb-07 21:29N 52°25' E 004°45'0 0.0
2018-Feb-07 09:29N 52°25' E 004°45'0 0.0
2018-Feb-07 08:59N 52°25' E 004°45'0 0.0
2018-Feb-07 08:29N 52°25' E 004°45'0 0.0
2018-Feb-07 07:59N 52°25' E 004°45'0 0.0
2018-Feb-07 07:26N 52°25' E 004°45'0 0.0
2018-Feb-07 06:59N 52°25' E 004°45'0 0.0
2018-Feb-07 06:26N 52°25' E 004°45'0 0.0
2018-Feb-07 05:56N 52°25' E 004°45'0 0.0
2018-Feb-07 05:29N 52°25' E 004°45'0 0.0
2018-Feb-07 04:59N 52°25' E 004°45'0 0.0
2018-Feb-07 04:29N 52°25' E 004°45'0 0.0
2018-Feb-07 03:59N 52°25' E 004°45'0 0.0
2018-Feb-07 03:20N 52°25' E 004°45'0 0.0
2018-Feb-07 02:59N 52°25' E 004°45'0 0.0
2018-Feb-07 02:26N 52°25' E 004°45'0 0.0
2018-Feb-07 01:59N 52°25' E 004°45'0 0.0
2018-Feb-07 01:23N 52°25' E 004°45'0 0.0
2018-Feb-07 00:59N 52°25' E 004°45'0 0.0
2018-Feb-07 00:29N 52°25' E 004°45'0 0.0
2018-Feb-06 23:59N 52°25' E 004°45'0 0.0
2018-Feb-06 23:29N 52°25' E 004°45'0 0.0
2018-Feb-06 22:56N 52°25' E 004°45'0 0.0
2018-Feb-06 22:29N 52°25' E 004°45'0 0.0
2018-Feb-06 21:56N 52°25' E 004°45'0 0.0
2018-Feb-06 21:29N 52°25' E 004°45'0 0.0
2018-Feb-06 20:59N 52°25' E 004°45'0 0.0
2018-Feb-06 20:29N 52°25' E 004°45'0 0.0
2018-Feb-06 19:59N 52°25' E 004°45'0 0.0
2018-Feb-06 19:29N 52°25' E 004°45'0 0.0
2018-Feb-06 18:50N 52°25' E 004°45'0 0.0
2018-Feb-06 18:23N 52°25' E 004°45'0 0.0
2018-Feb-06 17:59N 52°25' E 004°45'0 0.0
2018-Feb-06 17:29N 52°25' E 004°45'0 0.0
2018-Feb-06 16:59N 52°25' E 004°45'0 0.0
2018-Feb-06 16:29N 52°25' E 004°45'0 0.0
2018-Feb-06 15:53N 52°25' E 004°45'0 0.0
2018-Feb-06 15:29N 52°25' E 004°45'0 0.0
2018-Feb-06 14:59N 52°25' E 004°45'0 0.0
2018-Feb-06 14:26N 52°25' E 004°45'0 0.0
2018-Feb-06 13:50N 52°25' E 004°45'0 0.0
2018-Feb-06 13:29N 52°25' E 004°45'0 0.0
2018-Feb-06 12:59N 52°25' E 004°45'0 0.0
2018-Feb-06 12:29N 52°25' E 004°45'0 0.0
2018-Feb-06 11:59N 52°25' E 004°45'0 0.0
2018-Feb-06 11:26N 52°25' E 004°45'0 0.0
2018-Feb-06 10:59N 52°25' E 004°45'0 0.0
2018-Feb-06 10:29N 52°25' E 004°45'0 0.0
2018-Feb-06 09:59N 52°25' E 004°45'0 0.0
2018-Feb-06 09:29N 52°25' E 004°45'0 0.0
2018-Feb-06 08:53N 52°25' E 004°45'0 0.0
2018-Feb-06 08:29N 52°25' E 004°45'0 0.0
2018-Feb-06 07:59N 52°25' E 004°45'0 0.0
2018-Feb-06 07:29N 52°25' E 004°45'0 0.0
2018-Feb-06 06:59N 52°25' E 004°45'0 0.0
2018-Feb-06 06:29N 52°25' E 004°45'0 0.0
2018-Feb-06 05:56N 52°25' E 004°45'0 0.0
2018-Feb-06 05:29N 52°25' E 004°45'0 0.0
2018-Feb-06 04:56N 52°25' E 004°45'0 0.0
2018-Feb-06 04:29N 52°25' E 004°45'0 0.0
2018-Feb-06 03:59N 52°25' E 004°45'0 0.0
2018-Feb-06 03:26N 52°25' E 004°45'0 0.0
2018-Feb-06 02:59N 52°25' E 004°45'0 0.0
2018-Feb-06 02:29N 52°25' E 004°45'0 0.0
2018-Feb-06 01:59N 52°25' E 004°45'0 0.0
2018-Feb-06 01:23N 52°25' E 004°45'0 0.0
2018-Feb-06 00:50N 52°25' E 004°45'0 0.0
2018-Feb-06 00:29N 52°25' E 004°45'0 0.0
2018-Feb-05 23:59N 52°25' E 004°45'0 0.0
2018-Feb-05 23:29N 52°25' E 004°45'0 0.0
2018-Feb-05 22:56N 52°25' E 004°45'0 0.0
2018-Feb-05 22:29N 52°25' E 004°45'0 0.0
2018-Feb-05 21:50N 52°25' E 004°45'0 0.0
2018-Feb-05 21:23N 52°25' E 004°45'0 0.0
2018-Feb-05 20:59N 52°25' E 004°45'0 0.0
2018-Feb-05 20:29N 52°25' E 004°45'0 0.0
2018-Feb-05 19:59N 52°25' E 004°45'0 0.0
2018-Feb-05 19:26N 52°25' E 004°45'0 0.0
2018-Feb-05 18:56N 52°25' E 004°45'0 0.0
2018-Feb-05 18:29N 52°25' E 004°45'0 0.0
2018-Feb-05 17:59N 52°25' E 004°45'0 0.0
2018-Feb-05 17:29N 52°25' E 004°45'0 0.0
2018-Feb-05 16:59N 52°25' E 004°45'0 0.0
2018-Feb-05 16:29N 52°25' E 004°45'0 0.0
2018-Feb-05 15:56N 52°25' E 004°45'0 0.0
2018-Feb-05 15:29N 52°25' E 004°45'0 0.0
2018-Feb-05 14:59N 52°25' E 004°45'0 0.0
2018-Feb-05 14:29N 52°25' E 004°45'0 0.0
2018-Feb-05 13:59N 52°25' E 004°45'0 0.0
2018-Feb-05 13:29N 52°25' E 004°45'0 0.0
2018-Feb-05 12:59N 52°25' E 004°45'0 0.0
2018-Feb-05 12:23N 52°25' E 004°45'0 0.0
2018-Feb-05 11:59N 52°25' E 004°45'0 0.0
2018-Feb-05 11:23N 52°25' E 004°45'0 0.0
2018-Feb-05 10:59N 52°25' E 004°45'0 0.0
2018-Feb-05 10:29N 52°25' E 004°45'0 0.0
2018-Feb-05 09:59N 52°25' E 004°45'0 0.0
2018-Feb-05 09:29N 52°25' E 004°45'0 0.0
2018-Feb-05 08:56N 52°25' E 004°45'0 0.0
2018-Feb-05 08:29N 52°25' E 004°45'0 0.0
2018-Feb-05 07:59N 52°25' E 004°45'0 0.0
2018-Feb-05 07:29N 52°25' E 004°45'0 0.0
2018-Feb-05 06:59N 52°25' E 004°45'0 0.0
2018-Feb-05 06:29N 52°25' E 004°45'0 0.0
2018-Feb-05 05:29N 52°25' E 004°45'0 0.0
2018-Feb-05 04:59N 52°25' E 004°45'0 0.0
2018-Feb-05 04:29N 52°25' E 004°45'0 0.0
2018-Feb-05 03:59N 52°25' E 004°45'0 0.0
2018-Feb-05 03:29N 52°25' E 004°45'0 0.0
2018-Feb-05 02:59N 52°25' E 004°45'0 0.0
2018-Feb-05 02:26N 52°25' E 004°45'0 0.0
2018-Feb-05 01:59N 52°25' E 004°45'0 0.0
2018-Feb-05 01:29N 52°25' E 004°45'0 0.0
2018-Feb-05 00:59N 52°25' E 004°45'0 0.0
2018-Feb-05 00:23N 52°25' E 004°45'0 0.0
2018-Feb-04 23:59N 52°25' E 004°45'0 0.0
2018-Feb-04 23:29N 52°25' E 004°45'0 0.0
2018-Feb-04 22:59N 52°25' E 004°45'0 0.0
2018-Feb-04 22:29N 52°25' E 004°45'0 0.0
2018-Feb-04 21:59N 52°25' E 004°45'0 0.0
2018-Feb-04 21:29N 52°25' E 004°45'0 0.0
2018-Feb-04 20:59N 52°25' E 004°45'0 0.0
2018-Feb-04 19:59N 52°25' E 004°45'0 0.0
2018-Feb-04 19:26N 52°25' E 004°45'0 0.0
2018-Feb-04 18:59N 52°25' E 004°45'0 0.0
2018-Feb-04 18:29N 52°25' E 004°45'0 0.0
2018-Feb-04 17:56N 52°25' E 004°45'0 0.0
2018-Feb-04 17:29N 52°25' E 004°45'0 0.0
2018-Feb-04 15:29N 52°25' E 004°45'0 0.0
2018-Feb-04 14:59N 52°25' E 004°45'0 0.0
2018-Feb-04 14:29N 52°25' E 004°45'  

Dump ship's entire track history